sensor_id;sensor_type;location;lat;lon;timestamp;P1;durP1;ratioP1;P2;durP2;ratioP2
1993;SDS011;998;49.906;10.908;2022-12-07T00:00:54;7.93;;;5.83;;
1993;SDS011;998;49.906;10.908;2022-12-07T00:03:22;9.67;;;4.90;;
1993;SDS011;998;49.906;10.908;2022-12-07T00:05:49;7.90;;;5.50;;
1993;SDS011;998;49.906;10.908;2022-12-07T00:08:16;13.57;;;6.37;;
1993;SDS011;998;49.906;10.908;2022-12-07T00:10:44;8.10;;;5.57;;
1993;SDS011;998;49.906;10.908;2022-12-07T00:13:11;8.27;;;5.80;;
1993;SDS011;998;49.906;10.908;2022-12-07T00:15:40;8.90;;;4.70;;
1993;SDS011;998;49.906;10.908;2022-12-07T00:18:07;11.13;;;6.43;;
1993;SDS011;998;49.906;10.908;2022-12-07T00:20:35;9.07;;;5.33;;
1993;SDS011;998;49.906;10.908;2022-12-07T00:23:02;9.57;;;6.27;;
1993;SDS011;998;49.906;10.908;2022-12-07T00:25:30;6.33;;;5.63;;
1993;SDS011;998;49.906;10.908;2022-12-07T00:27:57;8.33;;;5.53;;
1993;SDS011;998;49.906;10.908;2022-12-07T00:30:25;7.63;;;6.10;;
1993;SDS011;998;49.906;10.908;2022-12-07T00:32:54;8.97;;;5.30;;
1993;SDS011;998;49.906;10.908;2022-12-07T00:35:21;7.50;;;6.13;;
1993;SDS011;998;49.906;10.908;2022-12-07T00:37:48;9.40;;;6.43;;
1993;SDS011;998;49.906;10.908;2022-12-07T00:40:16;8.57;;;5.67;;
1993;SDS011;998;49.906;10.908;2022-12-07T00:42:43;10.90;;;6.23;;
1993;SDS011;998;49.906;10.908;2022-12-07T00:45:11;11.90;;;7.07;;
1993;SDS011;998;49.906;10.908;2022-12-07T00:47:38;11.80;;;7.07;;
1993;SDS011;998;49.906;10.908;2022-12-07T00:50:08;11.37;;;5.93;;
1993;SDS011;998;49.906;10.908;2022-12-07T00:52:35;9.17;;;5.47;;
1993;SDS011;998;49.906;10.908;2022-12-07T00:55:03;10.60;;;6.57;;
1993;SDS011;998;49.906;10.908;2022-12-07T00:57:31;12.33;;;6.93;;
1993;SDS011;998;49.906;10.908;2022-12-07T00:59:58;6.70;;;5.07;;
1993;SDS011;998;49.906;10.908;2022-12-07T01:02:25;7.20;;;5.10;;
1993;SDS011;998;49.906;10.908;2022-12-07T01:04:53;9.73;;;5.80;;
1993;SDS011;998;49.906;10.908;2022-12-07T01:07:22;10.80;;;6.10;;
1993;SDS011;998;49.906;10.908;2022-12-07T01:09:49;11.90;;;7.47;;
1993;SDS011;998;49.906;10.908;2022-12-07T01:12:16;11.80;;;6.80;;
1993;SDS011;998;49.906;10.908;2022-12-07T01:14:44;10.60;;;6.73;;
1993;SDS011;998;49.906;10.908;2022-12-07T01:17:11;10.00;;;6.13;;
1993;SDS011;998;49.906;10.908;2022-12-07T01:19:39;11.70;;;6.20;;
1993;SDS011;998;49.906;10.908;2022-12-07T01:22:06;10.43;;;6.73;;
1993;SDS011;998;49.906;10.908;2022-12-07T01:24:35;11.50;;;6.73;;
1993;SDS011;998;49.906;10.908;2022-12-07T01:27:02;8.23;;;5.63;;
1993;SDS011;998;49.906;10.908;2022-12-07T01:29:30;11.87;;;6.80;;
1993;SDS011;998;49.906;10.908;2022-12-07T01:31:57;12.67;;;7.30;;
1993;SDS011;998;49.906;10.908;2022-12-07T01:34:24;9.57;;;6.30;;
1993;SDS011;998;49.906;10.908;2022-12-07T01:36:52;11.40;;;7.30;;
1993;SDS011;998;49.906;10.908;2022-12-07T01:39:19;10.77;;;7.03;;
1993;SDS011;998;49.906;10.908;2022-12-07T01:41:48;9.53;;;5.73;;
1993;SDS011;998;49.906;10.908;2022-12-07T01:44:20;10.80;;;6.20;;
1993;SDS011;998;49.906;10.908;2022-12-07T01:46:49;10.70;;;5.63;;
1993;SDS011;998;49.906;10.908;2022-12-07T01:49:20;8.40;;;5.93;;
1993;SDS011;998;49.906;10.908;2022-12-07T01:51:54;8.63;;;6.47;;
1993;SDS011;998;49.906;10.908;2022-12-07T01:54:27;10.00;;;6.50;;
1993;SDS011;998;49.906;10.908;2022-12-07T01:56:56;8.30;;;6.07;;
1993;SDS011;998;49.906;10.908;2022-12-07T01:59:24;8.30;;;5.63;;
1993;SDS011;998;49.906;10.908;2022-12-07T02:01:52;9.90;;;6.10;;
1993;SDS011;998;49.906;10.908;2022-12-07T02:04:21;9.00;;;5.30;;
1993;SDS011;998;49.906;10.908;2022-12-07T02:06:49;10.70;;;7.10;;
1993;SDS011;998;49.906;10.908;2022-12-07T02:09:18;9.70;;;5.87;;
1993;SDS011;998;49.906;10.908;2022-12-07T02:11:45;12.10;;;6.70;;
1993;SDS011;998;49.906;10.908;2022-12-07T02:14:14;10.43;;;6.27;;
1993;SDS011;998;49.906;10.908;2022-12-07T02:16:46;9.33;;;6.77;;
1993;SDS011;998;49.906;10.908;2022-12-07T02:19:31;10.13;;;6.87;;
1993;SDS011;998;49.906;10.908;2022-12-07T02:22:14;11.57;;;7.00;;
1993;SDS011;998;49.906;10.908;2022-12-07T02:24:55;10.37;;;7.23;;
1993;SDS011;998;49.906;10.908;2022-12-07T02:27:34;9.40;;;6.53;;
1993;SDS011;998;49.906;10.908;2022-12-07T02:30:11;12.00;;;7.40;;
1993;SDS011;998;49.906;10.908;2022-12-07T02:32:42;8.30;;;5.87;;
1993;SDS011;998;49.906;10.908;2022-12-07T02:35:16;11.27;;;7.23;;
1993;SDS011;998;49.906;10.908;2022-12-07T02:37:48;9.10;;;6.20;;
1993;SDS011;998;49.906;10.908;2022-12-07T02:40:27;7.60;;;5.80;;
1993;SDS011;998;49.906;10.908;2022-12-07T02:43:00;9.10;;;6.53;;
1993;SDS011;998;49.906;10.908;2022-12-07T02:45:32;10.57;;;6.50;;
1993;SDS011;998;49.906;10.908;2022-12-07T02:48:01;10.53;;;7.27;;
1993;SDS011;998;49.906;10.908;2022-12-07T02:50:30;10.63;;;7.13;;
1993;SDS011;998;49.906;10.908;2022-12-07T02:52:57;8.97;;;6.67;;
1993;SDS011;998;49.906;10.908;2022-12-07T02:55:26;9.13;;;5.63;;
1993;SDS011;998;49.906;10.908;2022-12-07T03:00:37;7.63;;;5.60;;
1993;SDS011;998;49.906;10.908;2022-12-07T03:03:11;9.77;;;6.47;;
1993;SDS011;998;49.906;10.908;2022-12-07T03:05:44;8.53;;;5.67;;
1993;SDS011;998;49.906;10.908;2022-12-07T03:08:21;10.60;;;6.70;;
1993;SDS011;998;49.906;10.908;2022-12-07T03:10:56;10.93;;;7.20;;
1993;SDS011;998;49.906;10.908;2022-12-07T03:13:28;8.73;;;6.27;;
1993;SDS011;998;49.906;10.908;2022-12-07T03:16:02;11.17;;;7.63;;
1993;SDS011;998;49.906;10.908;2022-12-07T03:18:36;11.10;;;7.60;;
1993;SDS011;998;49.906;10.908;2022-12-07T03:21:06;8.77;;;5.67;;
1993;SDS011;998;49.906;10.908;2022-12-07T03:23:40;10.50;;;6.07;;
1993;SDS011;998;49.906;10.908;2022-12-07T03:26:12;10.60;;;6.93;;
1993;SDS011;998;49.906;10.908;2022-12-07T03:28:42;14.43;;;6.80;;
1993;SDS011;998;49.906;10.908;2022-12-07T03:31:16;11.23;;;7.80;;
1993;SDS011;998;49.906;10.908;2022-12-07T03:33:48;11.17;;;7.47;;
1993;SDS011;998;49.906;10.908;2022-12-07T03:36:20;11.60;;;6.80;;
1993;SDS011;998;49.906;10.908;2022-12-07T03:38:53;10.60;;;6.63;;
1993;SDS011;998;49.906;10.908;2022-12-07T03:41:26;12.60;;;7.70;;
1993;SDS011;998;49.906;10.908;2022-12-07T03:43:58;12.90;;;8.63;;
1993;SDS011;998;49.906;10.908;2022-12-07T03:46:30;14.67;;;8.23;;
1993;SDS011;998;49.906;10.908;2022-12-07T03:49:05;14.47;;;8.40;;
1993;SDS011;998;49.906;10.908;2022-12-07T03:51:37;10.17;;;6.10;;
1993;SDS011;998;49.906;10.908;2022-12-07T03:54:09;13.27;;;6.83;;
1993;SDS011;998;49.906;10.908;2022-12-07T03:56:40;11.37;;;7.60;;
1993;SDS011;998;49.906;10.908;2022-12-07T03:59:10;10.77;;;8.13;;
1993;SDS011;998;49.906;10.908;2022-12-07T04:01:42;12.27;;;7.30;;
1993;SDS011;998;49.906;10.908;2022-12-07T04:04:10;11.00;;;6.63;;
1993;SDS011;998;49.906;10.908;2022-12-07T04:06:37;15.43;;;7.43;;
1993;SDS011;998;49.906;10.908;2022-12-07T04:09:05;11.17;;;7.07;;
1993;SDS011;998;49.906;10.908;2022-12-07T04:11:32;12.27;;;8.10;;
1993;SDS011;998;49.906;10.908;2022-12-07T04:13:59;10.47;;;7.60;;
1993;SDS011;998;49.906;10.908;2022-12-07T04:16:55;12.53;;;7.83;;
1993;SDS011;998;49.906;10.908;2022-12-07T04:19:23;14.30;;;8.50;;
1993;SDS011;998;49.906;10.908;2022-12-07T04:21:52;10.77;;;6.60;;
1993;SDS011;998;49.906;10.908;2022-12-07T04:24:20;14.07;;;8.30;;
1993;SDS011;998;49.906;10.908;2022-12-07T04:26:47;13.13;;;7.70;;
1993;SDS011;998;49.906;10.908;2022-12-07T04:29:15;12.13;;;7.60;;
1993;SDS011;998;49.906;10.908;2022-12-07T04:31:43;11.90;;;7.97;;
1993;SDS011;998;49.906;10.908;2022-12-07T04:34:15;12.50;;;7.83;;
1993;SDS011;998;49.906;10.908;2022-12-07T04:36:43;12.40;;;7.60;;
1993;SDS011;998;49.906;10.908;2022-12-07T04:39:13;12.47;;;7.40;;
1993;SDS011;998;49.906;10.908;2022-12-07T04:41:45;14.17;;;7.40;;
1993;SDS011;998;49.906;10.908;2022-12-07T04:44:13;9.67;;;7.37;;
1993;SDS011;998;49.906;10.908;2022-12-07T04:46:41;12.43;;;7.00;;
1993;SDS011;998;49.906;10.908;2022-12-07T04:49:09;10.93;;;7.43;;
1993;SDS011;998;49.906;10.908;2022-12-07T04:51:39;12.30;;;7.07;;
1993;SDS011;998;49.906;10.908;2022-12-07T04:54:07;12.37;;;8.73;;
1993;SDS011;998;49.906;10.908;2022-12-07T04:56:35;14.77;;;7.70;;
1993;SDS011;998;49.906;10.908;2022-12-07T04:59:02;10.90;;;6.30;;
1993;SDS011;998;49.906;10.908;2022-12-07T05:01:30;13.07;;;7.20;;
1993;SDS011;998;49.906;10.908;2022-12-07T05:03:58;11.57;;;6.93;;
1993;SDS011;998;49.906;10.908;2022-12-07T05:06:25;12.50;;;6.20;;
1993;SDS011;998;49.906;10.908;2022-12-07T05:08:54;14.80;;;7.63;;
1993;SDS011;998;49.906;10.908;2022-12-07T05:11:22;11.47;;;6.93;;
1993;SDS011;998;49.906;10.908;2022-12-07T05:14:06;9.73;;;6.83;;
1993;SDS011;998;49.906;10.908;2022-12-07T05:16:36;12.70;;;7.93;;
1993;SDS011;998;49.906;10.908;2022-12-07T05:19:04;13.33;;;7.80;;
1993;SDS011;998;49.906;10.908;2022-12-07T05:21:32;10.63;;;7.20;;
1993;SDS011;998;49.906;10.908;2022-12-07T05:24:01;12.80;;;7.23;;
1993;SDS011;998;49.906;10.908;2022-12-07T05:26:29;11.50;;;6.53;;
1993;SDS011;998;49.906;10.908;2022-12-07T05:28:57;12.13;;;7.40;;
1993;SDS011;998;49.906;10.908;2022-12-07T05:31:25;9.63;;;6.57;;
1993;SDS011;998;49.906;10.908;2022-12-07T05:33:53;11.17;;;7.33;;
1993;SDS011;998;49.906;10.908;2022-12-07T05:36:20;12.93;;;7.97;;
1993;SDS011;998;49.906;10.908;2022-12-07T05:38:48;18.07;;;8.40;;
1993;SDS011;998;49.906;10.908;2022-12-07T05:41:17;13.87;;;7.10;;
1993;SDS011;998;49.906;10.908;2022-12-07T05:44:02;16.17;;;9.20;;
1993;SDS011;998;49.906;10.908;2022-12-07T05:46:30;12.53;;;6.63;;
1993;SDS011;998;49.906;10.908;2022-12-07T05:48:58;11.27;;;6.80;;
1993;SDS011;998;49.906;10.908;2022-12-07T05:51:25;9.90;;;5.90;;
1993;SDS011;998;49.906;10.908;2022-12-07T05:53:53;13.17;;;7.53;;
1993;SDS011;998;49.906;10.908;2022-12-07T05:56:21;12.37;;;7.17;;
1993;SDS011;998;49.906;10.908;2022-12-07T05:58:49;12.50;;;7.17;;
1993;SDS011;998;49.906;10.908;2022-12-07T06:01:34;14.23;;;8.37;;
1993;SDS011;998;49.906;10.908;2022-12-07T06:04:01;16.90;;;8.10;;
1993;SDS011;998;49.906;10.908;2022-12-07T06:06:29;12.13;;;8.20;;
1993;SDS011;998;49.906;10.908;2022-12-07T06:08:56;10.90;;;6.40;;
1993;SDS011;998;49.906;10.908;2022-12-07T06:11:25;16.13;;;8.73;;
1993;SDS011;998;49.906;10.908;2022-12-07T06:14:10;14.40;;;8.30;;
1993;SDS011;998;49.906;10.908;2022-12-07T06:16:37;14.67;;;8.10;;
1993;SDS011;998;49.906;10.908;2022-12-07T06:19:05;14.67;;;7.50;;
1993;SDS011;998;49.906;10.908;2022-12-07T06:21:32;20.40;;;7.70;;
1993;SDS011;998;49.906;10.908;2022-12-07T06:23:59;13.30;;;8.27;;
1993;SDS011;998;49.906;10.908;2022-12-07T06:26:28;15.77;;;8.97;;
1993;SDS011;998;49.906;10.908;2022-12-07T06:28:56;17.00;;;9.07;;
1993;SDS011;998;49.906;10.908;2022-12-07T06:31:23;13.00;;;8.67;;
1993;SDS011;998;49.906;10.908;2022-12-07T06:33:51;14.93;;;8.60;;
1993;SDS011;998;49.906;10.908;2022-12-07T06:36:18;14.77;;;9.13;;
1993;SDS011;998;49.906;10.908;2022-12-07T06:38:45;11.33;;;7.20;;
1993;SDS011;998;49.906;10.908;2022-12-07T06:41:13;13.63;;;7.57;;
1993;SDS011;998;49.906;10.908;2022-12-07T06:43:42;16.53;;;9.13;;
1993;SDS011;998;49.906;10.908;2022-12-07T06:46:09;15.87;;;8.83;;
1993;SDS011;998;49.906;10.908;2022-12-07T06:48:36;13.07;;;7.90;;
1993;SDS011;998;49.906;10.908;2022-12-07T06:51:04;13.30;;;8.20;;
1993;SDS011;998;49.906;10.908;2022-12-07T06:53:31;14.40;;;9.13;;
1993;SDS011;998;49.906;10.908;2022-12-07T06:55:59;11.63;;;7.30;;
1993;SDS011;998;49.906;10.908;2022-12-07T06:58:27;15.73;;;9.80;;
1993;SDS011;998;49.906;10.908;2022-12-07T07:00:55;14.87;;;8.63;;
1993;SDS011;998;49.906;10.908;2022-12-07T07:03:23;15.67;;;8.93;;
1993;SDS011;998;49.906;10.908;2022-12-07T07:05:50;15.00;;;8.00;;
1993;SDS011;998;49.906;10.908;2022-12-07T07:08:18;15.60;;;8.47;;
1993;SDS011;998;49.906;10.908;2022-12-07T07:10:45;14.07;;;7.80;;
1993;SDS011;998;49.906;10.908;2022-12-07T07:13:13;13.20;;;8.13;;
1993;SDS011;998;49.906;10.908;2022-12-07T07:15:40;10.87;;;7.17;;
1993;SDS011;998;49.906;10.908;2022-12-07T07:18:09;12.23;;;7.37;;
1993;SDS011;998;49.906;10.908;2022-12-07T07:20:37;13.53;;;8.20;;
1993;SDS011;998;49.906;10.908;2022-12-07T07:23:05;12.40;;;8.37;;
1993;SDS011;998;49.906;10.908;2022-12-07T07:25:32;14.10;;;7.90;;
1993;SDS011;998;49.906;10.908;2022-12-07T07:28:00;13.70;;;8.30;;
1993;SDS011;998;49.906;10.908;2022-12-07T07:30:27;9.87;;;7.27;;
1993;SDS011;998;49.906;10.908;2022-12-07T07:32:56;11.70;;;6.27;;
1993;SDS011;998;49.906;10.908;2022-12-07T07:35:25;10.47;;;6.90;;
1993;SDS011;998;49.906;10.908;2022-12-07T07:37:53;12.60;;;7.00;;
1993;SDS011;998;49.906;10.908;2022-12-07T07:40:21;12.23;;;7.30;;
1993;SDS011;998;49.906;10.908;2022-12-07T07:42:48;14.13;;;7.20;;
1993;SDS011;998;49.906;10.908;2022-12-07T07:45:17;10.57;;;7.00;;
1993;SDS011;998;49.906;10.908;2022-12-07T07:47:44;11.10;;;7.03;;
1993;SDS011;998;49.906;10.908;2022-12-07T07:50:12;11.50;;;8.00;;
1993;SDS011;998;49.906;10.908;2022-12-07T07:52:41;11.57;;;6.87;;
1993;SDS011;998;49.906;10.908;2022-12-07T07:55:08;11.97;;;7.33;;
1993;SDS011;998;49.906;10.908;2022-12-07T07:57:36;12.47;;;7.70;;
1993;SDS011;998;49.906;10.908;2022-12-07T08:00:06;11.07;;;7.33;;
1993;SDS011;998;49.906;10.908;2022-12-07T08:02:34;12.83;;;7.83;;
1993;SDS011;998;49.906;10.908;2022-12-07T08:05:02;14.60;;;6.73;;
1993;SDS011;998;49.906;10.908;2022-12-07T08:07:30;11.73;;;7.00;;
1993;SDS011;998;49.906;10.908;2022-12-07T08:10:00;13.93;;;6.97;;
1993;SDS011;998;49.906;10.908;2022-12-07T08:12:27;11.93;;;7.43;;
1993;SDS011;998;49.906;10.908;2022-12-07T08:14:55;14.33;;;8.13;;
1993;SDS011;998;49.906;10.908;2022-12-07T08:17:22;12.17;;;6.37;;
1993;SDS011;998;49.906;10.908;2022-12-07T08:19:50;12.30;;;8.10;;
1993;SDS011;998;49.906;10.908;2022-12-07T08:22:17;10.90;;;7.37;;
1993;SDS011;998;49.906;10.908;2022-12-07T08:24:44;9.80;;;6.83;;
1993;SDS011;998;49.906;10.908;2022-12-07T08:27:12;12.17;;;7.67;;
1993;SDS011;998;49.906;10.908;2022-12-07T08:29:39;13.13;;;7.57;;
1993;SDS011;998;49.906;10.908;2022-12-07T08:32:06;12.33;;;7.00;;
1993;SDS011;998;49.906;10.908;2022-12-07T08:34:34;13.33;;;7.67;;
1993;SDS011;998;49.906;10.908;2022-12-07T08:37:02;14.63;;;7.80;;
1993;SDS011;998;49.906;10.908;2022-12-07T08:39:29;10.10;;;6.73;;
1993;SDS011;998;49.906;10.908;2022-12-07T08:41:56;11.57;;;6.70;;
1993;SDS011;998;49.906;10.908;2022-12-07T08:44:25;11.87;;;7.27;;
1993;SDS011;998;49.906;10.908;2022-12-07T08:46:53;13.73;;;8.20;;
1993;SDS011;998;49.906;10.908;2022-12-07T08:49:25;11.23;;;7.17;;
1993;SDS011;998;49.906;10.908;2022-12-07T08:51:57;12.40;;;6.90;;
1993;SDS011;998;49.906;10.908;2022-12-07T08:54:24;13.93;;;7.67;;
1993;SDS011;998;49.906;10.908;2022-12-07T08:56:52;12.23;;;7.33;;
1993;SDS011;998;49.906;10.908;2022-12-07T08:59:21;12.17;;;7.70;;
1993;SDS011;998;49.906;10.908;2022-12-07T09:01:51;12.70;;;8.60;;
1993;SDS011;998;49.906;10.908;2022-12-07T09:04:19;13.80;;;8.80;;
1993;SDS011;998;49.906;10.908;2022-12-07T09:06:46;14.70;;;8.17;;
1993;SDS011;998;49.906;10.908;2022-12-07T09:09:14;12.47;;;7.40;;
1993;SDS011;998;49.906;10.908;2022-12-07T09:11:42;13.40;;;8.73;;
1993;SDS011;998;49.906;10.908;2022-12-07T09:14:10;16.93;;;9.60;;
1993;SDS011;998;49.906;10.908;2022-12-07T09:16:38;11.40;;;8.57;;
1993;SDS011;998;49.906;10.908;2022-12-07T09:19:07;13.20;;;9.30;;
1993;SDS011;998;49.906;10.908;2022-12-07T09:21:34;17.20;;;10.43;;
1993;SDS011;998;49.906;10.908;2022-12-07T09:24:02;19.13;;;10.00;;
1993;SDS011;998;49.906;10.908;2022-12-07T09:26:29;15.73;;;9.20;;
1993;SDS011;998;49.906;10.908;2022-12-07T09:28:57;12.43;;;8.33;;
1993;SDS011;998;49.906;10.908;2022-12-07T09:31:25;18.47;;;9.03;;
1993;SDS011;998;49.906;10.908;2022-12-07T09:33:53;15.83;;;9.40;;
1993;SDS011;998;49.906;10.908;2022-12-07T09:36:22;16.10;;;8.83;;
1993;SDS011;998;49.906;10.908;2022-12-07T09:38:50;15.37;;;10.27;;
1993;SDS011;998;49.906;10.908;2022-12-07T09:41:18;14.37;;;8.50;;
1993;SDS011;998;49.906;10.908;2022-12-07T09:43:47;13.30;;;8.50;;
1993;SDS011;998;49.906;10.908;2022-12-07T09:46:16;11.70;;;7.30;;
1993;SDS011;998;49.906;10.908;2022-12-07T09:48:45;14.13;;;9.20;;
1993;SDS011;998;49.906;10.908;2022-12-07T09:51:17;14.00;;;8.70;;
1993;SDS011;998;49.906;10.908;2022-12-07T09:53:47;16.80;;;9.70;;
1993;SDS011;998;49.906;10.908;2022-12-07T09:56:15;20.10;;;9.60;;
1993;SDS011;998;49.906;10.908;2022-12-07T09:58:44;18.93;;;9.27;;
1993;SDS011;998;49.906;10.908;2022-12-07T10:01:13;17.80;;;10.10;;
1993;SDS011;998;49.906;10.908;2022-12-07T10:03:44;14.67;;;9.50;;
1993;SDS011;998;49.906;10.908;2022-12-07T10:06:15;12.33;;;8.47;;
1993;SDS011;998;49.906;10.908;2022-12-07T10:08:42;15.20;;;9.53;;
1993;SDS011;998;49.906;10.908;2022-12-07T10:11:11;16.83;;;9.50;;
1993;SDS011;998;49.906;10.908;2022-12-07T10:13:41;13.67;;;8.63;;
1993;SDS011;998;49.906;10.908;2022-12-07T10:16:25;18.13;;;10.67;;
1993;SDS011;998;49.906;10.908;2022-12-07T10:19:18;13.87;;;8.93;;
1993;SDS011;998;49.906;10.908;2022-12-07T10:22:05;13.10;;;9.27;;
1993;SDS011;998;49.906;10.908;2022-12-07T10:24:37;14.73;;;9.73;;
1993;SDS011;998;49.906;10.908;2022-12-07T10:27:18;12.93;;;8.87;;
1993;SDS011;998;49.906;10.908;2022-12-07T10:29:47;16.83;;;9.97;;
1993;SDS011;998;49.906;10.908;2022-12-07T10:32:30;14.60;;;9.20;;
1993;SDS011;998;49.906;10.908;2022-12-07T10:37:55;10.80;;;7.40;;
1993;SDS011;998;49.906;10.908;2022-12-07T10:40:26;12.93;;;8.77;;
1993;SDS011;998;49.906;10.908;2022-12-07T10:43:04;15.27;;;9.40;;
1993;SDS011;998;49.906;10.908;2022-12-07T10:45:43;9.80;;;6.63;;
1993;SDS011;998;49.906;10.908;2022-12-07T10:48:33;12.67;;;8.33;;
1993;SDS011;998;49.906;10.908;2022-12-07T10:51:08;16.47;;;9.20;;
1993;SDS011;998;49.906;10.908;2022-12-07T10:53:44;14.10;;;8.40;;
1993;SDS011;998;49.906;10.908;2022-12-07T11:02:13;9.67;;;6.53;;
1993;SDS011;998;49.906;10.908;2022-12-07T11:04:56;12.30;;;7.33;;
1993;SDS011;998;49.906;10.908;2022-12-07T11:07:35;12.57;;;7.70;;
1993;SDS011;998;49.906;10.908;2022-12-07T11:10:11;11.67;;;7.80;;
1993;SDS011;998;49.906;10.908;2022-12-07T11:12:49;10.50;;;6.63;;
1993;SDS011;998;49.906;10.908;2022-12-07T11:15:31;13.33;;;6.90;;
1993;SDS011;998;49.906;10.908;2022-12-07T11:18:07;11.60;;;7.57;;
1993;SDS011;998;49.906;10.908;2022-12-07T11:20:42;11.20;;;7.27;;
1993;SDS011;998;49.906;10.908;2022-12-07T11:23:21;11.87;;;7.90;;
1993;SDS011;998;49.906;10.908;2022-12-07T11:26:01;10.70;;;6.60;;
1993;SDS011;998;49.906;10.908;2022-12-07T11:28:40;9.40;;;5.93;;
1993;SDS011;998;49.906;10.908;2022-12-07T11:31:22;11.20;;;6.37;;
1993;SDS011;998;49.906;10.908;2022-12-07T11:33:56;12.10;;;6.17;;
1993;SDS011;998;49.906;10.908;2022-12-07T11:36:31;8.90;;;4.93;;
1993;SDS011;998;49.906;10.908;2022-12-07T11:39:04;10.40;;;6.17;;
1993;SDS011;998;49.906;10.908;2022-12-07T11:41:41;8.50;;;5.70;;
1993;SDS011;998;49.906;10.908;2022-12-07T11:44:22;8.03;;;6.03;;
1993;SDS011;998;49.906;10.908;2022-12-07T11:46:59;10.80;;;5.67;;
1993;SDS011;998;49.906;10.908;2022-12-07T11:49:37;11.63;;;6.80;;
1993;SDS011;998;49.906;10.908;2022-12-07T11:52:12;8.80;;;5.30;;
1993;SDS011;998;49.906;10.908;2022-12-07T11:54:49;9.00;;;5.73;;
1993;SDS011;998;49.906;10.908;2022-12-07T11:57:20;8.97;;;6.00;;
1993;SDS011;998;49.906;10.908;2022-12-07T11:59:52;11.03;;;6.10;;
1993;SDS011;998;49.906;10.908;2022-12-07T12:02:28;9.73;;;6.10;;
1993;SDS011;998;49.906;10.908;2022-12-07T12:05:02;8.83;;;5.83;;
1993;SDS011;998;49.906;10.908;2022-12-07T12:07:39;10.40;;;6.83;;
1993;SDS011;998;49.906;10.908;2022-12-07T12:10:14;9.73;;;5.90;;
1993;SDS011;998;49.906;10.908;2022-12-07T12:15:41;9.27;;;6.30;;
1993;SDS011;998;49.906;10.908;2022-12-07T12:18:28;10.73;;;6.10;;
1993;SDS011;998;49.906;10.908;2022-12-07T12:21:08;7.87;;;4.97;;
1993;SDS011;998;49.906;10.908;2022-12-07T12:23:40;10.87;;;6.23;;
1993;SDS011;998;49.906;10.908;2022-12-07T12:26:14;10.17;;;5.80;;
1993;SDS011;998;49.906;10.908;2022-12-07T12:28:50;8.53;;;5.50;;
1993;SDS011;998;49.906;10.908;2022-12-07T12:31:30;9.70;;;6.33;;
1993;SDS011;998;49.906;10.908;2022-12-07T12:34:03;9.47;;;5.63;;
1993;SDS011;998;49.906;10.908;2022-12-07T12:36:56;9.00;;;5.90;;
1993;SDS011;998;49.906;10.908;2022-12-07T12:39:24;8.13;;;4.70;;
1993;SDS011;998;49.906;10.908;2022-12-07T12:44:40;10.47;;;6.00;;
1993;SDS011;998;49.906;10.908;2022-12-07T12:47:39;7.53;;;4.80;;
1993;SDS011;998;49.906;10.908;2022-12-07T12:50:22;10.60;;;5.30;;
1993;SDS011;998;49.906;10.908;2022-12-07T12:52:55;9.27;;;6.07;;
1993;SDS011;998;49.906;10.908;2022-12-07T12:58:30;11.37;;;4.70;;
1993;SDS011;998;49.906;10.908;2022-12-07T13:10:37;7.87;;;5.00;;
1993;SDS011;998;49.906;10.908;2022-12-07T13:13:29;8.30;;;4.83;;
1993;SDS011;998;49.906;10.908;2022-12-07T13:25:29;7.90;;;4.73;;
1993;SDS011;998;49.906;10.908;2022-12-07T13:28:04;7.67;;;5.13;;
1993;SDS011;998;49.906;10.908;2022-12-07T13:30:43;12.80;;;5.17;;
1993;SDS011;998;49.906;10.908;2022-12-07T13:33:17;8.87;;;5.13;;
1993;SDS011;998;49.906;10.908;2022-12-07T13:35:45;7.17;;;4.27;;
1993;SDS011;998;49.906;10.908;2022-12-07T13:38:18;6.83;;;4.80;;
1993;SDS011;998;49.906;10.908;2022-12-07T13:43:46;7.10;;;3.77;;
1993;SDS011;998;49.906;10.908;2022-12-07T13:46:17;7.07;;;3.60;;
1993;SDS011;998;49.906;10.908;2022-12-07T13:48:47;7.03;;;5.00;;
1993;SDS011;998;49.906;10.908;2022-12-07T13:51:18;5.70;;;3.70;;
1993;SDS011;998;49.906;10.908;2022-12-07T13:53:48;6.80;;;3.87;;
1993;SDS011;998;49.906;10.908;2022-12-07T13:56:16;9.53;;;4.47;;
1993;SDS011;998;49.906;10.908;2022-12-07T13:58:43;6.87;;;4.70;;
1993;SDS011;998;49.906;10.908;2022-12-07T14:01:13;9.37;;;5.30;;
1993;SDS011;998;49.906;10.908;2022-12-07T14:03:41;8.67;;;4.93;;
1993;SDS011;998;49.906;10.908;2022-12-07T14:06:15;11.87;;;4.00;;
1993;SDS011;998;49.906;10.908;2022-12-07T14:08:45;7.80;;;4.30;;
1993;SDS011;998;49.906;10.908;2022-12-07T14:11:14;8.10;;;4.30;;
1993;SDS011;998;49.906;10.908;2022-12-07T14:13:50;6.20;;;4.57;;
1993;SDS011;998;49.906;10.908;2022-12-07T14:16:24;8.77;;;4.83;;
1993;SDS011;998;49.906;10.908;2022-12-07T14:18:54;8.83;;;5.87;;
1993;SDS011;998;49.906;10.908;2022-12-07T14:21:24;16.83;;;5.30;;
1993;SDS011;998;49.906;10.908;2022-12-07T14:24:12;8.10;;;4.50;;
1993;SDS011;998;49.906;10.908;2022-12-07T14:26:43;7.83;;;4.70;;
1993;SDS011;998;49.906;10.908;2022-12-07T14:29:22;7.77;;;4.40;;
1993;SDS011;998;49.906;10.908;2022-12-07T14:31:58;6.30;;;4.07;;
1993;SDS011;998;49.906;10.908;2022-12-07T14:34:52;6.60;;;4.03;;
1993;SDS011;998;49.906;10.908;2022-12-07T14:37:20;8.60;;;4.53;;
1993;SDS011;998;49.906;10.908;2022-12-07T14:39:47;8.10;;;3.80;;
1993;SDS011;998;49.906;10.908;2022-12-07T14:42:15;9.07;;;5.00;;
1993;SDS011;998;49.906;10.908;2022-12-07T14:44:44;7.23;;;4.63;;
1993;SDS011;998;49.906;10.908;2022-12-07T14:47:11;6.40;;;4.63;;
1993;SDS011;998;49.906;10.908;2022-12-07T14:49:39;6.70;;;3.93;;
1993;SDS011;998;49.906;10.908;2022-12-07T14:52:09;6.43;;;3.23;;
1993;SDS011;998;49.906;10.908;2022-12-07T14:54:40;2.83;;;1.77;;
1993;SDS011;998;49.906;10.908;2022-12-07T14:57:09;4.20;;;1.80;;
1993;SDS011;998;49.906;10.908;2022-12-07T14:59:37;3.57;;;2.00;;
1993;SDS011;998;49.906;10.908;2022-12-07T15:02:06;3.10;;;2.03;;
1993;SDS011;998;49.906;10.908;2022-12-07T15:04:36;4.07;;;1.87;;
1993;SDS011;998;49.906;10.908;2022-12-07T15:07:04;3.20;;;1.77;;
1993;SDS011;998;49.906;10.908;2022-12-07T15:09:32;3.77;;;2.23;;
1993;SDS011;998;49.906;10.908;2022-12-07T15:12:00;4.27;;;2.10;;
1993;SDS011;998;49.906;10.908;2022-12-07T15:14:27;9.60;;;2.23;;
1993;SDS011;998;49.906;10.908;2022-12-07T15:16:55;4.30;;;2.30;;
1993;SDS011;998;49.906;10.908;2022-12-07T15:19:24;3.83;;;2.03;;
1993;SDS011;998;49.906;10.908;2022-12-07T15:21:52;3.47;;;2.03;;
1993;SDS011;998;49.906;10.908;2022-12-07T15:24:19;6.67;;;3.80;;
1993;SDS011;998;49.906;10.908;2022-12-07T15:26:46;6.20;;;3.30;;
1993;SDS011;998;49.906;10.908;2022-12-07T15:29:14;6.37;;;3.40;;
1993;SDS011;998;49.906;10.908;2022-12-07T15:31:42;6.40;;;3.80;;
1993;SDS011;998;49.906;10.908;2022-12-07T15:34:10;8.60;;;5.37;;
1993;SDS011;998;49.906;10.908;2022-12-07T15:36:39;6.50;;;4.10;;
1993;SDS011;998;49.906;10.908;2022-12-07T15:39:07;12.93;;;4.97;;
1993;SDS011;998;49.906;10.908;2022-12-07T15:41:35;11.63;;;6.60;;
1993;SDS011;998;49.906;10.908;2022-12-07T15:44:02;8.00;;;4.40;;
1993;SDS011;998;49.906;10.908;2022-12-07T15:46:47;7.17;;;4.20;;
1993;SDS011;998;49.906;10.908;2022-12-07T15:49:15;5.90;;;4.60;;
1993;SDS011;998;49.906;10.908;2022-12-07T15:51:45;6.10;;;3.97;;
1993;SDS011;998;49.906;10.908;2022-12-07T15:54:13;5.17;;;3.73;;
1993;SDS011;998;49.906;10.908;2022-12-07T15:56:45;6.33;;;3.30;;
1993;SDS011;998;49.906;10.908;2022-12-07T15:59:12;7.10;;;4.10;;
1993;SDS011;998;49.906;10.908;2022-12-07T16:01:40;11.47;;;3.80;;
1993;SDS011;998;49.906;10.908;2022-12-07T16:04:07;11.50;;;4.03;;
1993;SDS011;998;49.906;10.908;2022-12-07T16:06:35;6.07;;;4.40;;
1993;SDS011;998;49.906;10.908;2022-12-07T16:09:04;6.70;;;3.93;;